sensor_id;sensor_type;location;lat;lon;timestamp;temperature;humidity
31677;DHT22;18385;51.572;6.578;2022-10-16T00:01:25;17.10;69.30
31677;DHT22;18385;51.572;6.578;2022-10-16T00:03:51;17.00;69.20
31677;DHT22;18385;51.572;6.578;2022-10-16T00:06:19;17.00;69.30
31677;DHT22;18385;51.572;6.578;2022-10-16T00:08:46;17.00;69.40
31677;DHT22;18385;51.572;6.578;2022-10-16T00:11:32;17.00;69.50
31677;DHT22;18385;51.572;6.578;2022-10-16T00:14:00;17.00;69.50
31677;DHT22;18385;51.572;6.578;2022-10-16T00:16:28;17.00;69.60
31677;DHT22;18385;51.572;6.578;2022-10-16T00:18:54;17.00;69.50
31677;DHT22;18385;51.572;6.578;2022-10-16T00:21:23;17.00;69.50
31677;DHT22;18385;51.572;6.578;2022-10-16T00:24:09;17.00;69.60
31677;DHT22;18385;51.572;6.578;2022-10-16T00:26:36;17.00;69.60
31677;DHT22;18385;51.572;6.578;2022-10-16T00:29:02;17.00;69.70
31677;DHT22;18385;51.572;6.578;2022-10-16T00:31:28;17.00;69.70
31677;DHT22;18385;51.572;6.578;2022-10-16T00:33:55;17.00;69.70
31677;DHT22;18385;51.572;6.578;2022-10-16T00:36:24;17.00;69.70
31677;DHT22;18385;51.572;6.578;2022-10-16T00:38:51;16.90;69.70
31677;DHT22;18385;51.572;6.578;2022-10-16T00:41:22;16.90;69.80
31677;DHT22;18385;51.572;6.578;2022-10-16T00:43:53;16.90;69.90
31677;DHT22;18385;51.572;6.578;2022-10-16T00:46:25;16.80;69.90
31677;DHT22;18385;51.572;6.578;2022-10-16T00:49:21;16.80;70.00
31677;DHT22;18385;51.572;6.578;2022-10-16T00:51:49;16.70;70.00
31677;DHT22;18385;51.572;6.578;2022-10-16T00:54:19;16.70;70.00
31677;DHT22;18385;51.572;6.578;2022-10-16T00:56:46;16.70;70.20
31677;DHT22;18385;51.572;6.578;2022-10-16T00:59:20;16.70;70.20
31677;DHT22;18385;51.572;6.578;2022-10-16T01:01:45;16.70;70.20
31677;DHT22;18385;51.572;6.578;2022-10-16T01:04:11;16.70;70.20
31677;DHT22;18385;51.572;6.578;2022-10-16T01:12:09;16.60;70.30
31677;DHT22;18385;51.572;6.578;2022-10-16T01:20:08;16.60;70.50
31677;DHT22;18385;51.572;6.578;2022-10-16T01:31:18;16.60;70.70
31677;DHT22;18385;51.572;6.578;2022-10-16T01:33:54;16.60;70.60
31677;DHT22;18385;51.572;6.578;2022-10-16T01:36:25;16.70;70.70
31677;DHT22;18385;51.572;6.578;2022-10-16T01:38:54;16.80;70.60
31677;DHT22;18385;51.572;6.578;2022-10-16T01:41:25;16.90;70.60
31677;DHT22;18385;51.572;6.578;2022-10-16T01:43:58;17.00;70.50
31677;DHT22;18385;51.572;6.578;2022-10-16T01:46:28;17.00;70.30
31677;DHT22;18385;51.572;6.578;2022-10-16T01:48:55;17.10;70.20
31677;DHT22;18385;51.572;6.578;2022-10-16T01:51:22;17.10;70.20
31677;DHT22;18385;51.572;6.578;2022-10-16T01:53:53;17.10;70.00
31677;DHT22;18385;51.572;6.578;2022-10-16T01:56:20;17.00;70.00
31677;DHT22;18385;51.572;6.578;2022-10-16T01:59:10;16.90;70.00
31677;DHT22;18385;51.572;6.578;2022-10-16T02:01:38;16.80;70.20
31677;DHT22;18385;51.572;6.578;2022-10-16T02:04:16;16.70;70.30
31677;DHT22;18385;51.572;6.578;2022-10-16T02:06:42;16.60;70.50
31677;DHT22;18385;51.572;6.578;2022-10-16T02:09:08;16.60;70.50
31677;DHT22;18385;51.572;6.578;2022-10-16T02:11:35;16.50;70.60
31677;DHT22;18385;51.572;6.578;2022-10-16T02:14:07;16.50;70.70
31677;DHT22;18385;51.572;6.578;2022-10-16T02:16:39;16.50;70.90
31677;DHT22;18385;51.572;6.578;2022-10-16T02:19:06;16.50;70.90
31677;DHT22;18385;51.572;6.578;2022-10-16T02:27:06;16.40;70.90
31677;DHT22;18385;51.572;6.578;2022-10-16T02:29:40;16.40;70.90
31677;DHT22;18385;51.572;6.578;2022-10-16T02:32:10;16.40;71.00
31677;DHT22;18385;51.572;6.578;2022-10-16T02:34:39;16.30;71.00
31677;DHT22;18385;51.572;6.578;2022-10-16T02:37:06;16.30;71.10
31677;DHT22;18385;51.572;6.578;2022-10-16T02:39:33;16.30;71.10
31677;DHT22;18385;51.572;6.578;2022-10-16T02:42:00;16.30;71.10
31677;DHT22;18385;51.572;6.578;2022-10-16T02:44:25;16.30;71.10
31677;DHT22;18385;51.572;6.578;2022-10-16T02:46:51;16.30;71.10
31677;DHT22;18385;51.572;6.578;2022-10-16T02:49:16;16.30;71.20
31677;DHT22;18385;51.572;6.578;2022-10-16T02:51:43;16.30;71.10
31677;DHT22;18385;51.572;6.578;2022-10-16T02:54:09;16.30;71.20
31677;DHT22;18385;51.572;6.578;2022-10-16T02:56:34;16.30;71.20
31677;DHT22;18385;51.572;6.578;2022-10-16T02:59:00;16.30;71.20
31677;DHT22;18385;51.572;6.578;2022-10-16T03:01:26;16.30;71.20
31677;DHT22;18385;51.572;6.578;2022-10-16T03:03:51;16.30;71.20
31677;DHT22;18385;51.572;6.578;2022-10-16T03:06:17;16.20;71.30
31677;DHT22;18385;51.572;6.578;2022-10-16T03:08:43;16.30;71.30
31677;DHT22;18385;51.572;6.578;2022-10-16T03:11:09;16.30;71.40
31677;DHT22;18385;51.572;6.578;2022-10-16T03:13:34;16.30;71.40
31677;DHT22;18385;51.572;6.578;2022-10-16T03:16:00;16.30;71.30
31677;DHT22;18385;51.572;6.578;2022-10-16T03:18:25;16.30;71.30
31677;DHT22;18385;51.572;6.578;2022-10-16T03:20:51;16.30;71.30
31677;DHT22;18385;51.572;6.578;2022-10-16T03:23:17;16.30;71.30
31677;DHT22;18385;51.572;6.578;2022-10-16T03:25:43;16.30;71.20
31677;DHT22;18385;51.572;6.578;2022-10-16T03:28:08;16.30;71.30
31677;DHT22;18385;51.572;6.578;2022-10-16T03:30:34;16.30;71.30
31677;DHT22;18385;51.572;6.578;2022-10-16T03:33:00;16.30;71.40
31677;DHT22;18385;51.572;6.578;2022-10-16T03:35:25;16.30;71.40
31677;DHT22;18385;51.572;6.578;2022-10-16T03:37:51;16.30;71.40
31677;DHT22;18385;51.572;6.578;2022-10-16T03:40:17;16.30;71.40
31677;DHT22;18385;51.572;6.578;2022-10-16T03:42:43;16.30;71.40
31677;DHT22;18385;51.572;6.578;2022-10-16T03:45:10;16.30;71.40
31677;DHT22;18385;51.572;6.578;2022-10-16T03:47:35;16.40;71.50
31677;DHT22;18385;51.572;6.578;2022-10-16T03:50:01;16.40;71.50
31677;DHT22;18385;51.572;6.578;2022-10-16T03:52:29;16.40;71.40
31677;DHT22;18385;51.572;6.578;2022-10-16T03:54:55;16.50;71.50
31677;DHT22;18385;51.572;6.578;2022-10-16T03:57:21;16.50;71.40
31677;DHT22;18385;51.572;6.578;2022-10-16T03:59:46;16.50;71.40
31677;DHT22;18385;51.572;6.578;2022-10-16T04:02:12;16.60;71.30
31677;DHT22;18385;51.572;6.578;2022-10-16T04:04:38;16.60;71.20
31677;DHT22;18385;51.572;6.578;2022-10-16T04:07:04;16.60;71.20
31677;DHT22;18385;51.572;6.578;2022-10-16T04:09:30;16.60;71.10
31677;DHT22;18385;51.572;6.578;2022-10-16T04:11:56;16.60;71.10
31677;DHT22;18385;51.572;6.578;2022-10-16T04:14:21;16.60;71.10
31677;DHT22;18385;51.572;6.578;2022-10-16T04:16:47;16.60;71.20
31677;DHT22;18385;51.572;6.578;2022-10-16T04:19:12;16.70;71.20
31677;DHT22;18385;51.572;6.578;2022-10-16T04:21:38;16.70;71.20
31677;DHT22;18385;51.572;6.578;2022-10-16T04:24:04;16.70;71.20
31677;DHT22;18385;51.572;6.578;2022-10-16T04:26:30;16.70;71.10
31677;DHT22;18385;51.572;6.578;2022-10-16T04:28:56;16.70;71.10
31677;DHT22;18385;51.572;6.578;2022-10-16T04:31:22;16.70;71.00
31677;DHT22;18385;51.572;6.578;2022-10-16T04:33:47;16.70;71.00
31677;DHT22;18385;51.572;6.578;2022-10-16T04:36:13;16.70;71.00
31677;DHT22;18385;51.572;6.578;2022-10-16T04:38:39;16.70;71.00
31677;DHT22;18385;51.572;6.578;2022-10-16T04:41:06;16.70;71.00
31677;DHT22;18385;51.572;6.578;2022-10-16T04:43:32;16.70;71.00
31677;DHT22;18385;51.572;6.578;2022-10-16T04:45:58;16.70;71.10
31677;DHT22;18385;51.572;6.578;2022-10-16T04:48:24;16.70;71.10
31677;DHT22;18385;51.572;6.578;2022-10-16T04:50:49;16.60;71.10
31677;DHT22;18385;51.572;6.578;2022-10-16T04:53:15;16.70;71.10
31677;DHT22;18385;51.572;6.578;2022-10-16T04:55:42;16.70;71.20
31677;DHT22;18385;51.572;6.578;2022-10-16T04:58:09;16.70;71.10
31677;DHT22;18385;51.572;6.578;2022-10-16T05:00:34;16.70;71.00
31677;DHT22;18385;51.572;6.578;2022-10-16T05:03:00;16.70;71.10
31677;DHT22;18385;51.572;6.578;2022-10-16T05:05:27;16.70;71.10
31677;DHT22;18385;51.572;6.578;2022-10-16T05:07:53;16.70;71.10
31677;DHT22;18385;51.572;6.578;2022-10-16T05:10:20;16.70;71.10
31677;DHT22;18385;51.572;6.578;2022-10-16T05:12:46;16.70;71.00
31677;DHT22;18385;51.572;6.578;2022-10-16T05:15:12;16.70;71.10
31677;DHT22;18385;51.572;6.578;2022-10-16T05:17:37;16.60;71.00
31677;DHT22;18385;51.572;6.578;2022-10-16T05:20:03;16.60;71.10
31677;DHT22;18385;51.572;6.578;2022-10-16T05:22:29;16.60;71.20
31677;DHT22;18385;51.572;6.578;2022-10-16T05:24:55;16.60;71.20
31677;DHT22;18385;51.572;6.578;2022-10-16T05:27:20;16.60;71.20
31677;DHT22;18385;51.572;6.578;2022-10-16T05:29:47;16.50;71.20
31677;DHT22;18385;51.572;6.578;2022-10-16T05:32:14;16.50;71.20
31677;DHT22;18385;51.572;6.578;2022-10-16T05:34:40;16.50;71.30
31677;DHT22;18385;51.572;6.578;2022-10-16T05:37:06;16.40;71.20
31677;DHT22;18385;51.572;6.578;2022-10-16T05:39:32;16.40;71.20
31677;DHT22;18385;51.572;6.578;2022-10-16T05:41:57;16.40;71.30
31677;DHT22;18385;51.572;6.578;2022-10-16T05:44:23;16.30;71.30
31677;DHT22;18385;51.572;6.578;2022-10-16T05:46:49;16.20;71.30
31677;DHT22;18385;51.572;6.578;2022-10-16T05:49:14;16.20;71.40
31677;DHT22;18385;51.572;6.578;2022-10-16T05:51:40;16.20;71.60
31677;DHT22;18385;51.572;6.578;2022-10-16T05:54:06;16.20;71.60
31677;DHT22;18385;51.572;6.578;2022-10-16T05:56:32;16.10;71.60
31677;DHT22;18385;51.572;6.578;2022-10-16T05:58:58;16.20;71.60
31677;DHT22;18385;51.572;6.578;2022-10-16T06:01:23;16.20;71.70
31677;DHT22;18385;51.572;6.578;2022-10-16T06:03:52;16.20;71.70
31677;DHT22;18385;51.572;6.578;2022-10-16T06:06:21;16.20;71.60
31677;DHT22;18385;51.572;6.578;2022-10-16T06:08:49;16.20;71.70
31677;DHT22;18385;51.572;6.578;2022-10-16T06:11:17;16.20;71.70
31677;DHT22;18385;51.572;6.578;2022-10-16T06:13:43;16.20;71.80
31677;DHT22;18385;51.572;6.578;2022-10-16T06:16:11;16.20;71.80
31677;DHT22;18385;51.572;6.578;2022-10-16T06:18:38;16.20;71.80
31677;DHT22;18385;51.572;6.578;2022-10-16T06:21:09;16.20;71.80
31677;DHT22;18385;51.572;6.578;2022-10-16T06:23:35;16.20;71.80
31677;DHT22;18385;51.572;6.578;2022-10-16T06:26:09;16.10;71.80
31677;DHT22;18385;51.572;6.578;2022-10-16T06:28:35;16.10;71.90
31677;DHT22;18385;51.572;6.578;2022-10-16T06:31:01;16.10;71.90
31677;DHT22;18385;51.572;6.578;2022-10-16T06:33:27;16.10;72.00
31677;DHT22;18385;51.572;6.578;2022-10-16T06:35:53;16.10;72.00
31677;DHT22;18385;51.572;6.578;2022-10-16T06:38:18;16.10;72.00
31677;DHT22;18385;51.572;6.578;2022-10-16T06:40:44;16.00;72.10
31677;DHT22;18385;51.572;6.578;2022-10-16T06:43:10;16.00;72.10
31677;DHT22;18385;51.572;6.578;2022-10-16T06:45:35;16.10;72.20
31677;DHT22;18385;51.572;6.578;2022-10-16T06:48:02;16.10;72.20
31677;DHT22;18385;51.572;6.578;2022-10-16T06:50:27;16.10;72.10
31677;DHT22;18385;51.572;6.578;2022-10-16T06:52:53;16.10;72.10
31677;DHT22;18385;51.572;6.578;2022-10-16T06:55:18;16.00;72.10
31677;DHT22;18385;51.572;6.578;2022-10-16T06:57:47;16.00;72.10
31677;DHT22;18385;51.572;6.578;2022-10-16T07:00:13;16.10;72.20
31677;DHT22;18385;51.572;6.578;2022-10-16T07:02:39;16.10;72.10
31677;DHT22;18385;51.572;6.578;2022-10-16T07:05:05;16.10;72.10
31677;DHT22;18385;51.572;6.578;2022-10-16T07:07:30;16.10;72.10
31677;DHT22;18385;51.572;6.578;2022-10-16T07:09:56;16.00;72.10
31677;DHT22;18385;51.572;6.578;2022-10-16T07:12:22;16.00;72.10
31677;DHT22;18385;51.572;6.578;2022-10-16T07:14:47;16.00;72.10
31677;DHT22;18385;51.572;6.578;2022-10-16T07:17:13;16.00;72.20
31677;DHT22;18385;51.572;6.578;2022-10-16T07:19:39;16.10;72.20
31677;DHT22;18385;51.572;6.578;2022-10-16T07:22:05;16.10;72.20
31677;DHT22;18385;51.572;6.578;2022-10-16T07:24:30;16.10;72.20
31677;DHT22;18385;51.572;6.578;2022-10-16T07:26:56;16.30;72.30
31677;DHT22;18385;51.572;6.578;2022-10-16T07:29:22;16.30;72.10
31677;DHT22;18385;51.572;6.578;2022-10-16T07:31:48;16.40;72.10
31677;DHT22;18385;51.572;6.578;2022-10-16T07:34:16;16.40;72.00
31677;DHT22;18385;51.572;6.578;2022-10-16T07:36:42;16.50;72.00
31677;DHT22;18385;51.572;6.578;2022-10-16T07:39:07;16.60;71.90
31677;DHT22;18385;51.572;6.578;2022-10-16T07:41:33;16.70;71.90
31677;DHT22;18385;51.572;6.578;2022-10-16T07:44:02;16.80;71.80
31677;DHT22;18385;51.572;6.578;2022-10-16T07:46:28;16.80;71.70
31677;DHT22;18385;51.572;6.578;2022-10-16T07:48:55;16.90;71.70
31677;DHT22;18385;51.572;6.578;2022-10-16T07:51:23;16.90;71.60
31677;DHT22;18385;51.572;6.578;2022-10-16T07:53:50;17.00;71.50
31677;DHT22;18385;51.572;6.578;2022-10-16T07:56:17;17.10;71.50
31677;DHT22;18385;51.572;6.578;2022-10-16T07:58:43;17.20;71.50
31677;DHT22;18385;51.572;6.578;2022-10-16T08:01:11;17.20;71.40
31677;DHT22;18385;51.572;6.578;2022-10-16T08:03:37;17.30;71.30
31677;DHT22;18385;51.572;6.578;2022-10-16T08:06:04;17.40;71.20
31677;DHT22;18385;51.572;6.578;2022-10-16T08:08:30;17.40;71.10
31677;DHT22;18385;51.572;6.578;2022-10-16T08:10:56;17.40;71.00
31677;DHT22;18385;51.572;6.578;2022-10-16T08:13:21;17.50;71.00
31677;DHT22;18385;51.572;6.578;2022-10-16T08:15:47;17.60;71.00
31677;DHT22;18385;51.572;6.578;2022-10-16T08:18:14;17.60;70.90
31677;DHT22;18385;51.572;6.578;2022-10-16T08:20:41;17.70;70.80
31677;DHT22;18385;51.572;6.578;2022-10-16T08:23:09;17.80;70.70
31677;DHT22;18385;51.572;6.578;2022-10-16T08:25:35;17.80;70.70
31677;DHT22;18385;51.572;6.578;2022-10-16T08:28:04;17.90;70.70
31677;DHT22;18385;51.572;6.578;2022-10-16T08:30:31;18.00;70.60
31677;DHT22;18385;51.572;6.578;2022-10-16T08:32:56;18.10;70.50
31677;DHT22;18385;51.572;6.578;2022-10-16T08:35:23;18.10;70.40
31677;DHT22;18385;51.572;6.578;2022-10-16T08:37:49;18.20;70.30
31677;DHT22;18385;51.572;6.578;2022-10-16T08:40:29;18.20;70.20
31677;DHT22;18385;51.572;6.578;2022-10-16T08:48:51;18.40;70.00
31677;DHT22;18385;51.572;6.578;2022-10-16T08:51:26;18.50;69.90
31677;DHT22;18385;51.572;6.578;2022-10-16T08:54:03;18.60;69.80
31677;DHT22;18385;51.572;6.578;2022-10-16T08:56:29;18.70;69.80
31677;DHT22;18385;51.572;6.578;2022-10-16T08:58:55;18.80;69.60
31677;DHT22;18385;51.572;6.578;2022-10-16T09:01:23;18.90;69.50
31677;DHT22;18385;51.572;6.578;2022-10-16T09:07:14;19.00;69.30
31677;DHT22;18385;51.572;6.578;2022-10-16T09:10:06;19.00;69.00
31677;DHT22;18385;51.572;6.578;2022-10-16T09:18:34;19.10;69.00
31677;DHT22;18385;51.572;6.578;2022-10-16T09:21:30;19.20;68.80
31677;DHT22;18385;51.572;6.578;2022-10-16T09:24:15;19.20;68.60
31677;DHT22;18385;51.572;6.578;2022-10-16T09:26:42;19.20;68.40
31677;DHT22;18385;51.572;6.578;2022-10-16T09:29:12;19.20;68.40
31677;DHT22;18385;51.572;6.578;2022-10-16T09:31:38;19.30;68.30
31677;DHT22;18385;51.572;6.578;2022-10-16T09:34:05;19.40;68.30
31677;DHT22;18385;51.572;6.578;2022-10-16T09:36:43;19.50;68.10
31677;DHT22;18385;51.572;6.578;2022-10-16T09:39:11;19.50;67.70
31677;DHT22;18385;51.572;6.578;2022-10-16T09:41:42;19.60;67.80
31677;DHT22;18385;51.572;6.578;2022-10-16T09:44:29;19.60;67.60
31677;DHT22;18385;51.572;6.578;2022-10-16T09:47:16;19.50;67.40
31677;DHT22;18385;51.572;6.578;2022-10-16T09:49:59;19.60;67.60
31677;DHT22;18385;51.572;6.578;2022-10-16T09:52:31;19.60;67.50
31677;DHT22;18385;51.572;6.578;2022-10-16T09:54:57;19.60;67.30
31677;DHT22;18385;51.572;6.578;2022-10-16T09:57:24;19.60;67.80
31677;DHT22;18385;51.572;6.578;2022-10-16T09:59:52;19.60;67.40
31677;DHT22;18385;51.572;6.578;2022-10-16T10:02:29;19.70;67.30
31677;DHT22;18385;51.572;6.578;2022-10-16T10:04:55;19.80;67.10
31677;DHT22;18385;51.572;6.578;2022-10-16T10:07:27;19.80;66.90
31677;DHT22;18385;51.572;6.578;2022-10-16T10:09:54;19.90;66.80
31677;DHT22;18385;51.572;6.578;2022-10-16T10:12:25;20.00;66.70
31677;DHT22;18385;51.572;6.578;2022-10-16T10:14:54;20.00;66.40
31677;DHT22;18385;51.572;6.578;2022-10-16T10:17:26;20.00;66.30
31677;DHT22;18385;51.572;6.578;2022-10-16T10:19:53;20.10;67.10
31677;DHT22;18385;51.572;6.578;2022-10-16T10:38:20;20.70;65.10
31677;DHT22;18385;51.572;6.578;2022-10-16T10:40:55;20.80;65.00
31677;DHT22;18385;51.572;6.578;2022-10-16T10:46:32;21.00;64.30
31677;DHT22;18385;51.572;6.578;2022-10-16T10:52:23;21.10;64.40
31677;DHT22;18385;51.572;6.578;2022-10-16T10:55:08;21.30;64.10
31677;DHT22;18385;51.572;6.578;2022-10-16T10:57:38;21.60;63.90
31677;DHT22;18385;51.572;6.578;2022-10-16T11:00:28;21.80;63.50
31677;DHT22;18385;51.572;6.578;2022-10-16T11:03:13;21.80;62.80
31677;DHT22;18385;51.572;6.578;2022-10-16T11:05:46;21.80;62.70
31677;DHT22;18385;51.572;6.578;2022-10-16T11:08:20;21.70;62.10
31677;DHT22;18385;51.572;6.578;2022-10-16T11:10:58;21.60;62.00
31677;DHT22;18385;51.572;6.578;2022-10-16T11:13:38;21.60;61.90
31677;DHT22;18385;51.572;6.578;2022-10-16T11:17:02;21.40;61.60
31677;DHT22;18385;51.572;6.578;2022-10-16T11:22:32;21.70;62.40
31677;DHT22;18385;51.572;6.578;2022-10-16T11:27:40;22.00;62.40
31677;DHT22;18385;51.572;6.578;2022-10-16T11:30:16;22.30;61.50
31677;DHT22;18385;51.572;6.578;2022-10-16T11:35:23;22.40;60.00
31677;DHT22;18385;51.572;6.578;2022-10-16T11:37:50;22.60;60.10
31677;DHT22;18385;51.572;6.578;2022-10-16T11:40:30;22.50;59.80
31677;DHT22;18385;51.572;6.578;2022-10-16T11:43:15;22.50;59.70
31677;DHT22;18385;51.572;6.578;2022-10-16T11:45:49;22.50;59.70
31677;DHT22;18385;51.572;6.578;2022-10-16T11:48:43;22.50;59.50
31677;DHT22;18385;51.572;6.578;2022-10-16T11:51:22;22.60;59.60
31677;DHT22;18385;51.572;6.578;2022-10-16T11:54:08;22.70;59.30
31677;DHT22;18385;51.572;6.578;2022-10-16T11:56:41;22.60;58.90
31677;DHT22;18385;51.572;6.578;2022-10-16T11:59:30;22.40;58.90
31677;DHT22;18385;51.572;6.578;2022-10-16T12:04:59;22.00;59.90
31677;DHT22;18385;51.572;6.578;2022-10-16T12:07:34;21.80;59.20
31677;DHT22;18385;51.572;6.578;2022-10-16T12:10:20;21.60;59.40
31677;DHT22;18385;51.572;6.578;2022-10-16T12:12:46;21.60;59.70
31677;DHT22;18385;51.572;6.578;2022-10-16T12:17:46;22.10;59.50
31677;DHT22;18385;51.572;6.578;2022-10-16T12:22:42;22.50;59.00
31677;DHT22;18385;51.572;6.578;2022-10-16T12:25:31;22.80;58.30
31677;DHT22;18385;51.572;6.578;2022-10-16T12:28:15;23.00;57.90
31677;DHT22;18385;51.572;6.578;2022-10-16T12:30:43;23.20;57.80
31677;DHT22;18385;51.572;6.578;2022-10-16T12:33:26;23.20;57.60
31677;DHT22;18385;51.572;6.578;2022-10-16T12:35:53;23.00;56.90
31677;DHT22;18385;51.572;6.578;2022-10-16T12:38:29;22.90;57.10
31677;DHT22;18385;51.572;6.578;2022-10-16T12:41:05;22.80;56.90
31677;DHT22;18385;51.572;6.578;2022-10-16T12:48:38;22.30;57.40
31677;DHT22;18385;51.572;6.578;2022-10-16T12:54:14;22.50;57.50
31677;DHT22;18385;51.572;6.578;2022-10-16T12:56:51;22.60;57.10
31677;DHT22;18385;51.572;6.578;2022-10-16T13:10:46;23.30;56.60
31677;DHT22;18385;51.572;6.578;2022-10-16T13:13:37;23.50;56.10
31677;DHT22;18385;51.572;6.578;2022-10-16T13:19:22;23.60;55.60
31677;DHT22;18385;51.572;6.578;2022-10-16T13:22:06;23.50;55.50
31677;DHT22;18385;51.572;6.578;2022-10-16T13:27:58;23.30;55.60
31677;DHT22;18385;51.572;6.578;2022-10-16T13:30:39;23.30;55.50
31677;DHT22;18385;51.572;6.578;2022-10-16T13:33:14;23.00;55.50
31677;DHT22;18385;51.572;6.578;2022-10-16T13:35:51;22.90;55.70
31677;DHT22;18385;51.572;6.578;2022-10-16T13:38:22;22.80;55.80
31677;DHT22;18385;51.572;6.578;2022-10-16T13:40:58;22.80;55.90
31677;DHT22;18385;51.572;6.578;2022-10-16T13:43:39;22.70;55.80
31677;DHT22;18385;51.572;6.578;2022-10-16T13:46:15;22.70;56.00
31677;DHT22;18385;51.572;6.578;2022-10-16T13:48:41;22.80;56.00
31677;DHT22;18385;51.572;6.578;2022-10-16T13:51:15;23.00;56.00
31677;DHT22;18385;51.572;6.578;2022-10-16T13:53:42;23.30;55.70
31677;DHT22;18385;51.572;6.578;2022-10-16T13:56:13;23.50;55.50
31677;DHT22;18385;51.572;6.578;2022-10-16T13:58:39;24.00;55.10
31677;DHT22;18385;51.572;6.578;2022-10-16T14:01:20;24.30;54.80
31677;DHT22;18385;51.572;6.578;2022-10-16T14:03:49;24.40;54.10
31677;DHT22;18385;51.572;6.578;2022-10-16T14:06:20;24.40;53.90
31677;DHT22;18385;51.572;6.578;2022-10-16T14:08:57;24.20;53.40
31677;DHT22;18385;51.572;6.578;2022-10-16T14:11:24;24.00;53.40
31677;DHT22;18385;51.572;6.578;2022-10-16T14:13:51;23.70;53.70
31677;DHT22;18385;51.572;6.578;2022-10-16T14:16:23;23.50;54.00
31677;DHT22;18385;51.572;6.578;2022-10-16T14:19:03;23.40;54.20
31677;DHT22;18385;51.572;6.578;2022-10-16T14:21:32;23.30;54.20
31677;DHT22;18385;51.572;6.578;2022-10-16T14:23:59;23.20;54.20
31677;DHT22;18385;51.572;6.578;2022-10-16T14:26:28;23.10;54.20
31677;DHT22;18385;51.572;6.578;2022-10-16T14:29:15;23.00;54.30
31677;DHT22;18385;51.572;6.578;2022-10-16T14:31:43;23.10;54.30
31677;DHT22;18385;51.572;6.578;2022-10-16T14:34:24;23.30;54.50
31677;DHT22;18385;51.572;6.578;2022-10-16T14:36:50;23.40;54.00
31677;DHT22;18385;51.572;6.578;2022-10-16T14:39:22;23.40;53.80
31677;DHT22;18385;51.572;6.578;2022-10-16T14:41:56;23.40;53.50
31677;DHT22;18385;51.572;6.578;2022-10-16T14:44:27;23.30;53.60
31677;DHT22;18385;51.572;6.578;2022-10-16T14:46:53;23.30;53.50
31677;DHT22;18385;51.572;6.578;2022-10-16T14:49:20;23.10;53.40
31677;DHT22;18385;51.572;6.578;2022-10-16T14:51:47;23.00;53.50
31677;DHT22;18385;51.572;6.578;2022-10-16T14:54:15;22.90;53.60
31677;DHT22;18385;51.572;6.578;2022-10-16T14:56:54;22.80;54.30
31677;DHT22;18385;51.572;6.578;2022-10-16T14:59:42;22.80;53.80
31677;DHT22;18385;51.572;6.578;2022-10-16T15:02:30;22.80;54.00
31677;DHT22;18385;51.572;6.578;2022-10-16T15:04:57;22.90;54.00
31677;DHT22;18385;51.572;6.578;2022-10-16T15:07:24;22.90;53.80
31677;DHT22;18385;51.572;6.578;2022-10-16T15:09:50;22.90;53.70
31677;DHT22;18385;51.572;6.578;2022-10-16T15:12:16;22.80;53.70
31677;DHT22;18385;51.572;6.578;2022-10-16T15:14:42;22.70;53.70
31677;DHT22;18385;51.572;6.578;2022-10-16T15:17:10;22.70;53.80
31677;DHT22;18385;51.572;6.578;2022-10-16T15:19:35;22.60;53.80
31677;DHT22;18385;51.572;6.578;2022-10-16T15:22:01;22.60;53.90
31677;DHT22;18385;51.572;6.578;2022-10-16T15:24:27;22.70;53.90
31677;DHT22;18385;51.572;6.578;2022-10-16T15:26:52;22.70;53.80
31677;DHT22;18385;51.572;6.578;2022-10-16T15:29:18;22.60;53.70
31677;DHT22;18385;51.572;6.578;2022-10-16T15:31:44;22.50;53.70
31677;DHT22;18385;51.572;6.578;2022-10-16T15:34:12;22.50;54.00
31677;DHT22;18385;51.572;6.578;2022-10-16T15:36:38;22.40;53.90
31677;DHT22;18385;51.572;6.578;2022-10-16T15:39:08;22.40;54.00
31677;DHT22;18385;51.572;6.578;2022-10-16T15:41:37;22.40;54.00
31677;DHT22;18385;51.572;6.578;2022-10-16T15:44:03;22.30;54.00
31677;DHT22;18385;51.572;6.578;2022-10-16T15:46:32;22.20;54.00
31677;DHT22;18385;51.572;6.578;2022-10-16T15:48:59;22.10;54.20
31677;DHT22;18385;51.572;6.578;2022-10-16T15:51:26;22.00;54.20
31677;DHT22;18385;51.572;6.578;2022-10-16T15:53:58;21.90;54.20
31677;DHT22;18385;51.572;6.578;2022-10-16T15:56:24;21.90;54.40
31677;DHT22;18385;51.572;6.578;2022-10-16T15:58:51;21.80;54.50
31677;DHT22;18385;51.572;6.578;2022-10-16T16:01:18;21.70;54.60
31677;DHT22;18385;51.572;6.578;2022-10-16T16:03:46;21.60;54.80
31677;DHT22;18385;51.572;6.578;2022-10-16T16:06:14;21.50;55.00
31677;DHT22;18385;51.572;6.578;2022-10-16T16:08:40;21.40;55.00
31677;DHT22;18385;51.572;6.578;2022-10-16T16:11:11;21.30;55.20
31677;DHT22;18385;51.572;6.578;2022-10-16T16:13:37;21.30;55.20
31677;DHT22;18385;51.572;6.578;2022-10-16T16:16:08;21.20;55.30
31677;DHT22;18385;51.572;6.578;2022-10-16T16:18:34;21.20;55.30
31677;DHT22;18385;51.572;6.578;2022-10-16T16:21:00;21.20;55.40
31677;DHT22;18385;51.572;6.578;2022-10-16T16:23:25;21.20;55.50
31677;DHT22;18385;51.572;6.578;2022-10-16T16:26:26;21.10;55.50
31677;DHT22;18385;51.572;6.578;2022-10-16T16:28:53;21.10;55.70
31677;DHT22;18385;51.572;6.578;2022-10-16T16:31:19;21.00;55.70
31677;DHT22;18385;51.572;6.578;2022-10-16T16:33:46;21.00;55.90
31677;DHT22;18385;51.572;6.578;2022-10-16T16:36:12;21.00;56.00
31677;DHT22;18385;51.572;6.578;2022-10-16T16:38:38;20.90;56.00
31677;DHT22;18385;51.572;6.578;2022-10-16T16:41:18;20.90;56.10
31677;DHT22;18385;51.572;6.578;2022-10-16T16:43:45;20.90;56.30
31677;DHT22;18385;51.572;6.578;2022-10-16T16:46:11;20.80;56.30
31677;DHT22;18385;51.572;6.578;2022-10-16T16:48:37;20.70;56.40
31677;DHT22;18385;51.572;6.578;2022-10-16T16:51:08;20.60;56.50
31677;DHT22;18385;51.572;6.578;2022-10-16T16:53:35;20.50;56.70
31677;DHT22;18385;51.572;6.578;2022-10-16T16:56:04;20.40;56.90
31677;DHT22;18385;51.572;6.578;2022-10-16T16:58:31;20.40;57.10
31677;DHT22;18385;51.572;6.578;2022-10-16T17:00:57;20.30;57.20
31677;DHT22;18385;51.572;6.578;2022-10-16T17:03:34;20.20;57.30
31677;DHT22;18385;51.572;6.578;2022-10-16T17:06:03;20.20;57.50
31677;DHT22;18385;51.572;6.578;2022-10-16T17:08:29;20.10;57.60
31677;DHT22;18385;51.572;6.578;2022-10-16T17:10:56;20.10;57.70
31677;DHT22;18385;51.572;6.578;2022-10-16T17:13:24;20.00;57.80
31677;DHT22;18385;51.572;6.578;2022-10-16T17:15:50;20.00;57.90
31677;DHT22;18385;51.572;6.578;2022-10-16T17:18:16;20.00;57.90
31677;DHT22;18385;51.572;6.578;2022-10-16T17:20:43;20.00;57.90
31677;DHT22;18385;51.572;6.578;2022-10-16T17:23:10;20.00;57.90
31677;DHT22;18385;51.572;6.578;2022-10-16T17:25:40;20.00;58.00
31677;DHT22;18385;51.572;6.578;2022-10-16T17:28:07;20.00;58.00
31677;DHT22;18385;51.572;6.578;2022-10-16T17:30:33;20.00;58.10